Time;durP1;ratioP1;P1;durP2;ratioP2;P2;SDS_P1;SDS_P2;PMS_P1;PMS_P2;Temp;Humidity;BMP_temperature;BMP_pressure;BME280_temperature;BME280_humidity;BME280_pressure;Samples;Min_cycle;Max_cycle;Signal;HPM_P1;HPM_P2
2022/03/26 00:01:05;;;;;;;30.38;15.30;;;;;;;6.38;71.66;103381.41;5076296;28;20491;-75
2022/03/26 00:03:35;;;;;;;34.97;15.73;;;;;;;6.35;71.58;103380.28;5074491;28;20323;-76
2022/03/26 00:06:06;;;;;;;31.95;15.00;;;;;;;6.33;71.62;103382.78;5065180;28;20052;-74
2022/03/26 00:08:35;;;;;;;36.80;15.60;;;;;;;6.28;71.80;103384.16;5073437;28;20537;-74
2022/03/26 00:11:03;;;;;;;31.92;14.55;;;;;;;6.25;71.63;103378.72;5072065;28;20370;-74
2022/03/26 00:13:31;;;;;;;32.53;14.20;;;;;;;6.22;72.24;103389.88;5068418;28;20052;-76
2022/03/26 00:15:59;;;;;;;27.25;13.80;;;;;;;6.17;71.96;103380.81;5075577;28;20044;-74
2022/03/26 00:18:27;;;;;;;32.85;13.98;;;;;;;6.14;72.15;103380.59;5071498;28;20101;-74
2022/03/26 00:20:54;;;;;;;31.55;13.82;;;;;;;6.09;72.27;103376.75;5072920;28;20497;-74
2022/03/26 00:23:22;;;;;;;34.90;14.40;;;;;;;6.06;72.80;103380.84;5073099;28;20059;-74
2022/03/26 00:25:51;;;;;;;36.83;15.80;;;;;;;6.01;72.66;103383.13;5069937;28;20052;-74
2022/03/26 00:28:20;;;;;;;29.15;14.02;;;;;;;5.98;73.09;103387.22;5071363;28;20059;-74
2022/03/26 00:30:47;;;;;;;31.92;14.85;;;;;;;5.95;72.99;103387.88;5057666;28;20135;-74
2022/03/26 00:33:15;;;;;;;36.47;16.23;;;;;;;5.92;73.85;103387.66;5072244;28;20047;-74
2022/03/26 00:35:44;;;;;;;34.38;15.13;;;;;;;5.88;73.69;103388.19;5072269;28;20478;-74
2022/03/26 00:38:12;;;;;;;32.05;14.10;;;;;;;5.84;73.34;103380.97;5071898;28;20575;-74
2022/03/26 00:40:40;;;;;;;33.33;14.90;;;;;;;5.80;73.80;103397.16;5071942;28;20105;-75
2022/03/26 00:43:13;;;;;;;35.25;15.35;;;;;;;5.78;73.66;103389.22;5072562;28;20117;-76
2022/03/26 00:45:41;;;;;;;32.07;14.03;;;;;;;5.76;74.24;103392.53;5067887;28;20072;-73
2022/03/26 00:48:10;;;;;;;33.60;14.00;;;;;;;5.70;73.34;103384.25;5074966;28;20296;-74
2022/03/26 00:50:38;;;;;;;32.13;15.40;;;;;;;5.65;73.54;103391.72;5071855;28;20610;-76
2022/03/26 00:53:06;;;;;;;34.65;14.75;;;;;;;5.61;73.82;103394.00;5071445;28;20055;-78
2022/03/26 00:55:34;;;;;;;33.65;15.90;;;;;;;5.61;74.72;103397.50;5069426;28;20048;-76
2022/03/26 00:58:02;;;;;;;35.60;14.38;;;;;;;5.58;74.41;103395.56;5075890;28;20051;-75
2022/03/26 01:00:31;;;;;;;33.10;14.57;;;;;;;5.59;74.92;103397.38;5072458;28;20488;-73
2022/03/26 01:03:02;;;;;;;38.38;15.88;;;;;;;5.57;74.28;103391.16;5073538;28;20240;-75
2022/03/26 01:05:30;;;;;;;31.27;14.77;;;;;;;5.56;74.55;103404.06;5073501;28;20048;-76
2022/03/26 01:07:58;;;;;;;32.10;15.20;;;;;;;5.53;74.61;103399.53;5071466;28;20135;-76
2022/03/26 01:10:26;;;;;;;38.97;16.25;;;;;;;5.54;74.74;103396.13;5072324;28;20607;-76
2022/03/26 01:12:54;;;;;;;35.03;15.82;;;;;;;5.56;74.82;103401.47;5071360;28;20048;-76
2022/03/26 01:15:23;;;;;;;31.60;15.68;;;;;;;5.57;74.86;103388.56;5073128;28;20129;-76
2022/03/26 01:17:52;;;;;;;36.83;16.85;;;;;;;5.58;75.33;103392.97;5074590;28;20135;-76
2022/03/26 01:20:20;;;;;;;35.58;16.13;;;;;;;5.56;74.82;103391.03;5070350;28;20089;-76
2022/03/26 01:22:49;;;;;;;34.00;15.10;;;;;;;5.56;75.25;103394.56;5075082;28;20109;-75
2022/03/26 01:25:17;;;;;;;31.85;15.02;;;;;;;5.52;74.93;103392.53;5069566;28;20055;-76
2022/03/26 01:27:45;;;;;;;35.00;15.38;;;;;;;5.50;75.14;103391.50;5069699;28;20052;-76
2022/03/26 01:30:13;;;;;;;33.95;14.40;;;;;;;5.50;75.09;103395.78;5078991;28;20131;-77
2022/03/26 01:32:43;;;;;;;35.15;15.32;;;;;;;5.43;75.28;103389.22;5076689;28;20044;-76
2022/03/26 01:35:14;;;;;;;31.05;15.75;;;;;;;5.37;75.15;103387.88;5076793;28;20063;-76
2022/03/26 01:37:42;;;;;;;34.75;15.70;;;;;;;5.32;75.56;103387.53;5074570;28;20138;-76
2022/03/26 01:40:11;;;;;;;35.65;16.05;;;;;;;5.27;75.37;103386.28;5064951;28;20052;-74
2022/03/26 01:42:39;;;;;;;32.40;16.55;;;;;;;5.24;75.60;103388.63;5074187;28;20131;-74
2022/03/26 01:45:11;;;;;;;34.28;14.85;;;;;;;5.21;75.90;103397.13;5077002;28;20068;-74
2022/03/26 01:47:40;;;;;;;30.73;14.25;;;;;;;5.19;75.83;103392.63;5073521;28;20678;-74
2022/03/26 01:50:08;;;;;;;37.05;16.92;;;;;;;5.18;76.78;103394.31;5071184;28;20110;-75
2022/03/26 01:52:38;;;;;;;36.10;16.50;;;;;;;5.14;75.87;103393.97;5069767;28;20048;-74
2022/03/26 01:55:07;;;;;;;37.83;16.33;;;;;;;5.14;76.65;103391.38;5075289;28;20135;-74
2022/03/26 01:57:36;;;;;;;34.30;15.43;;;;;;;5.10;76.10;103392.84;5076566;28;20049;-74
2022/03/26 02:00:05;;;;;;;36.25;16.52;;;;;;;5.07;76.56;103394.28;5076236;28;20085;-74
2022/03/26 02:02:33;;;;;;;37.33;15.05;;;;;;;5.03;76.76;103389.66;5078902;28;20131;-74
2022/03/26 02:05:02;;;;;;;35.28;15.68;;;;;;;5.01;76.54;103386.03;5075082;28;20147;-75
2022/03/26 02:07:30;;;;;;;37.72;17.55;;;;;;;4.98;77.52;103376.28;5075812;28;20588;-74
2022/03/26 02:09:59;;;;;;;37.40;16.42;;;;;;;4.95;76.96;103383.88;5070938;28;21037;-73
2022/03/26 02:12:28;;;;;;;33.95;16.77;;;;;;;4.94;77.24;103384.66;5074362;28;20058;-74
2022/03/26 02:14:58;;;;;;;35.88;15.82;;;;;;;4.92;76.90;103379.34;5079230;28;20142;-74
2022/03/26 02:17:26;;;;;;;41.70;15.95;;;;;;;4.87;77.66;103378.06;5078705;28;20171;-74
2022/03/26 02:19:56;;;;;;;38.85;17.98;;;;;;;4.89;77.99;103379.09;5065660;28;20476;-74
2022/03/26 02:22:26;;;;;;;39.35;16.75;;;;;;;4.81;77.17;103377.59;5074186;28;20048;-74
2022/03/26 02:24:54;;;;;;;43.10;18.70;;;;;;;4.77;78.29;103375.56;5077027;28;20048;-74
2022/03/26 02:27:23;;;;;;;34.22;16.48;;;;;;;4.73;77.33;103372.59;5078217;28;20102;-74
2022/03/26 02:29:52;;;;;;;42.05;17.95;;;;;;;4.71;77.74;103372.47;5070057;28;20052;-74
2022/03/26 02:32:21;;;;;;;38.72;17.10;;;;;;;4.71;78.14;103368.97;5077136;28;20072;-75
2022/03/26 02:34:49;;;;;;;38.97;16.88;;;;;;;4.71;77.99;103364.69;5072591;28;20036;-74
2022/03/26 02:37:34;;;;;;;39.00;17.80;;;;;;;4.73;77.87;103367.41;5074058;28;20056;-73
2022/03/26 02:40:04;;;;;;;40.10;17.38;;;;;;;4.74;79.05;103369.22;5076538;28;20048;-73
2022/03/26 02:42:33;;;;;;;37.92;17.73;;;;;;;4.72;78.59;103365.59;5075322;28;20055;-74
2022/03/26 02:45:01;;;;;;;38.03;17.85;;;;;;;4.68;77.92;103372.25;5078306;28;20066;-75
2022/03/26 02:47:29;;;;;;;43.40;18.02;;;;;;;4.65;78.87;103368.50;5073062;28;20134;-73
2022/03/26 02:49:57;;;;;;;38.22;16.55;;;;;;;4.61;78.23;103372.56;5077383;28;20183;-75
2022/03/26 02:52:26;;;;;;;36.45;16.48;;;;;;;4.57;78.46;103373.09;5077735;28;20117;-75
2022/03/26 02:54:55;;;;;;;43.53;18.98;;;;;;;4.56;79.67;103371.28;5073346;28;20094;-74
2022/03/26 02:57:23;;;;;;;37.72;15.45;;;;;;;4.53;78.59;103364.16;5068568;28;20129;-75
2022/03/26 02:59:51;;;;;;;45.03;18.30;;;;;;;4.49;79.63;103367.31;5074555;28;20047;-74
2022/03/26 03:02:18;;;;;;;39.67;17.35;;;;;;;4.46;78.91;103371.38;5072333;28;20048;-75
2022/03/26 03:04:47;;;;;;;41.05;17.13;;;;;;;4.41;78.42;103367.50;5075919;28;20048;-76
2022/03/26 03:07:15;;;;;;;43.42;18.98;;;;;;;4.41;79.35;103367.50;5074794;28;20044;-74
2022/03/26 03:09:42;;;;;;;38.22;17.70;;;;;;;4.46;80.12;103367.06;5076669;28;20058;-74
2022/03/26 03:12:12;;;;;;;38.80;17.60;;;;;;;4.44;79.46;103371.25;5077256;28;20052;-74
2022/03/26 03:14:40;;;;;;;47.78;20.75;;;;;;;4.45;80.32;103369.56;5075425;28;20736;-74
2022/03/26 03:17:08;;;;;;;36.70;17.08;;;;;;;4.40;79.36;103370.88;5075826;28;20475;-74
2022/03/26 03:19:35;;;;;;;38.42;16.80;;;;;;;4.39;79.34;103361.28;5068451;28;20076;-74
2022/03/26 03:22:04;;;;;;;37.80;17.00;;;;;;;4.35;79.74;103357.53;5076368;28;20959;-74
2022/03/26 03:24:32;;;;;;;44.17;18.38;;;;;;;4.36;80.40;103374.03;5076424;28;20059;-74
2022/03/26 03:27:00;;;;;;;41.47;18.92;;;;;;;4.33;79.71;103368.59;5079138;28;20040;-75
2022/03/26 03:29:30;;;;;;;47.75;19.42;;;;;;;4.34;80.90;103370.41;5074185;28;20039;-75
2022/03/26 03:31:58;;;;;;;44.90;20.20;;;;;;;4.37;81.33;103373.25;5075303;28;20071;-75
2022/03/26 03:34:26;;;;;;;48.90;19.35;;;;;;;4.40;81.06;103365.69;5074535;28;20048;-74
2022/03/26 03:36:54;;;;;;;40.20;17.65;;;;;;;4.37;80.67;103368.94;5076731;28;20506;-74
2022/03/26 03:39:23;;;;;;;47.20;20.08;;;;;;;4.40;81.34;103365.69;5076367;28;20040;-74
2022/03/26 03:41:51;;;;;;;43.13;18.38;;;;;;;4.36;80.77;103368.81;5064625;28;20582;-75
2022/03/26 03:44:18;;;;;;;53.17;20.50;;;;;;;4.40;82.25;103376.97;5063744;28;20045;-74
2022/03/26 03:46:48;;;;;;;51.60;19.95;;;;;;;4.39;81.74;103375.19;5064360;28;20136;-74
2022/03/26 03:49:17;;;;;;;44.55;18.25;;;;;;;4.36;80.54;103376.63;5071452;28;20105;-74
2022/03/26 03:51:45;;;;;;;42.10;21.35;;;;;;;4.35;81.43;103367.91;5066139;28;20328;-75
2022/03/26 03:54:14;;;;;;;47.53;19.98;;;;;;;4.33;81.72;103377.28;5072354;28;20206;-74
2022/03/26 03:56:42;;;;;;;56.35;22.27;;;;;;;4.36;82.33;103377.53;5072294;28;20093;-74
2022/03/26 03:59:10;;;;;;;56.50;20.50;;;;;;;4.36;81.48;103377.53;5077702;28;20226;-74
2022/03/26 04:01:38;;;;;;;47.55;20.35;;;;;;;4.39;81.57;103380.38;5071873;28;20087;-74
2022/03/26 04:04:07;;;;;;;48.25;19.90;;;;;;;4.36;81.85;103380.13;5076471;28;20062;-74
2022/03/26 04:06:35;;;;;;;57.88;21.90;;;;;;;4.39;82.65;103380.38;5068297;28;20048;-74
2022/03/26 04:09:03;;;;;;;59.50;21.65;;;;;;;4.38;82.10;103382.84;5076332;28;20070;-75
2022/03/26 04:11:31;;;;;;;53.95;22.42;;;;;;;4.36;81.87;103382.72;5080124;28;20158;-75
2022/03/26 04:13:58;;;;;;;55.25;22.50;;;;;;;4.37;81.78;103379.34;5076751;28;20099;-75
2022/03/26 04:16:27;;;;;;;53.80;21.17;;;;;;;4.32;82.27;103375.47;5075632;28;20086;-74
2022/03/26 04:18:55;;;;;;;52.20;20.88;;;;;;;4.30;82.40;103383.94;5074198;28;20048;-74
2022/03/26 04:21:24;;;;;;;50.53;21.10;;;;;;;4.26;82.03;103377.59;5078157;28;20590;-74
2022/03/26 04:23:52;;;;;;;58.17;22.23;;;;;;;4.26;82.89;103382.78;5070475;28;20167;-74
2022/03/26 04:26:20;;;;;;;62.42;22.02;;;;;;;4.22;82.87;103381.63;5074265;28;20259;-74
2022/03/26 04:28:47;;;;;;;58.58;22.85;;;;;;;4.19;82.60;103383.09;5075293;28;20129;-75
2022/03/26 04:31:15;;;;;;;54.33;20.73;;;;;;;4.12;82.77;103378.22;5071811;28;20508;-74
2022/03/26 04:33:43;;;;;;;60.05;23.10;;;;;;;4.05;82.78;103379.41;5065544;28;20048;-75
2022/03/26 04:36:11;;;;;;;57.60;22.77;;;;;;;4.03;83.20;103387.88;5065844;28;20158;-74
2022/03/26 04:38:40;;;;;;;43.00;20.58;;;;;;;3.94;82.96;103388.03;5067556;28;20084;-74
2022/03/26 04:41:09;;;;;;;59.38;23.58;;;;;;;3.86;83.11;103383.91;5069443;28;20065;-74
2022/03/26 04:43:37;;;;;;;63.00;25.45;;;;;;;3.80;82.87;103386.91;5075208;28;20113;-74
2022/03/26 04:46:05;;;;;;;62.53;22.48;;;;;;;3.76;83.12;103394.34;5073830;28;20056;-74
2022/03/26 04:48:32;;;;;;;54.55;22.05;;;;;;;3.70;83.49;103386.97;5065920;28;20144;-74
2022/03/26 04:51:00;;;;;;;54.53;23.88;;;;;;;3.67;83.54;103396.19;5071513;28;20058;-74
2022/03/26 04:53:28;;;;;;;54.45;21.77;;;;;;;3.65;83.08;103396.06;5076543;28;20112;-76
2022/03/26 04:55:58;;;;;;;62.08;25.05;;;;;;;3.72;83.88;103400.06;5074296;28;20051;-73
2022/03/26 04:58:26;;;;;;;69.20;25.10;;;;;;;3.85;84.71;103397.69;5073053;28;20048;-74
2022/03/26 05:00:54;;;;;;;63.95;26.33;;;;;;;3.84;84.43;103401.06;5073213;28;20044;-74
2022/03/26 05:03:22;;;;;;;59.97;24.33;;;;;;;3.88;84.65;103392.72;5072449;28;20052;-74
2022/03/26 05:05:50;;;;;;;59.65;25.00;;;;;;;3.89;84.42;103400.66;5079004;28;20194;-74
2022/03/26 05:08:17;;;;;;;58.92;25.23;;;;;;;3.92;85.26;103394.78;5058108;28;20052;-74
2022/03/26 05:10:46;;;;;;;73.55;28.45;;;;;;;3.91;84.60;103398.19;5077056;28;20171;-74
2022/03/26 05:13:15;;;;;;;63.65;24.48;;;;;;;3.89;84.19;103399.75;5074915;28;20749;-74
2022/03/26 05:15:43;;;;;;;64.80;27.02;;;;;;;3.88;84.56;103401.44;5079297;28;20054;-74
2022/03/26 05:18:13;;;;;;;65.97;23.13;;;;;;;3.86;83.96;103402.09;5076589;28;20135;-74
2022/03/26 05:20:41;;;;;;;60.35;22.88;;;;;;;3.83;84.57;103392.38;5081052;28;20072;-74
2022/03/26 05:23:09;;;;;;;68.22;26.40;;;;;;;3.80;84.98;103401.59;5080355;28;20154;-74
2022/03/26 05:25:37;;;;;;;75.65;27.75;;;;;;;3.75;85.22;103400.31;5077290;28;20132;-75
2022/03/26 05:28:05;;;;;;;74.55;27.95;;;;;;;3.71;85.20;103401.75;5080588;28;20054;-74
2022/03/26 05:30:35;;;;;;;67.57;25.63;;;;;;;3.66;85.17;103397.88;5080656;28;20064;-73
2022/03/26 05:33:03;;;;;;;77.07;29.92;;;;;;;3.64;85.18;103395.94;5077158;28;20059;-73
2022/03/26 05:35:31;;;;;;;73.05;28.63;;;;;;;3.56;84.84;103401.41;5074869;28;20052;-74
2022/03/26 05:38:00;;;;;;;82.25;31.48;;;;;;;3.53;85.28;103403.75;5080114;28;20120;-73
2022/03/26 05:40:28;;;;;;;66.93;24.83;;;;;;;3.48;84.66;103398.94;5061888;28;20044;-74
2022/03/26 05:42:56;;;;;;;67.68;24.83;;;;;;;3.44;84.72;103410.75;5072445;28;20040;-73
2022/03/26 05:45:24;;;;;;;72.25;28.40;;;;;;;3.43;85.08;103406.34;5076899;28;20479;-74
2022/03/26 05:47:59;;;;;;;61.28;25.33;;;;;;;3.41;85.24;103413.09;5074894;28;20042;-74
2022/03/26 05:50:27;;;;;;;66.90;28.05;;;;;;;3.39;84.69;103414.66;5078518;28;20093;-74
2022/03/26 05:52:55;;;;;;;72.03;28.33;;;;;;;3.39;85.07;103408.56;5077192;28;20044;-74
2022/03/26 05:55:23;;;;;;;63.08;24.95;;;;;;;3.40;85.81;103413.88;5073510;28;20043;-74
2022/03/26 05:57:51;;;;;;;73.03;27.88;;;;;;;3.43;86.00;103416.72;5075521;28;20060;-74
2022/03/26 06:00:19;;;;;;;86.68;31.55;;;;;;;3.48;86.12;103425.81;5071802;28;20044;-77
2022/03/26 06:02:48;;;;;;;81.85;29.27;;;;;;;3.51;85.83;103425.16;5079477;28;20429;-77
2022/03/26 06:05:17;;;;;;;88.70;33.10;;;;;;;3.53;85.69;103421.91;5073303;28;20057;-77
2022/03/26 06:07:45;;;;;;;90.78;30.98;;;;;;;3.55;85.26;103419.44;5073525;28;20131;-76
2022/03/26 06:10:13;;;;;;;79.60;29.40;;;;;;;3.61;85.60;103418.25;5079056;28;20136;-75
2022/03/26 06:12:46;;;;;;;82.40;29.13;;;;;;;3.69;85.90;103423.16;5076955;28;20114;-76
2022/03/26 06:15:14;;;;;;;79.28;30.25;;;;;;;3.73;85.21;103423.53;5075145;28;20101;-76
2022/03/26 06:18:02;;;;;;;78.47;29.27;;;;;;;3.79;85.42;103423.13;5079974;28;20140;-76
2022/03/26 06:20:31;;;;;;;86.28;29.77;;;;;;;3.87;85.31;103424.66;5074490;28;20468;-76
2022/03/26 06:23:00;;;;;;;76.60;29.58;;;;;;;3.92;84.97;103421.66;5076828;28;20541;-76
2022/03/26 06:25:31;;;;;;;78.35;30.52;;;;;;;3.99;84.90;103419.56;5078506;28;20143;-76
2022/03/26 06:27:59;;;;;;;83.10;29.23;;;;;;;4.01;84.76;103421.50;5072523;28;20136;-76
2022/03/26 06:30:27;;;;;;;96.18;33.58;;;;;;;4.11;85.41;103430.94;5074110;28;20126;-76
2022/03/26 06:32:55;;;;;;;87.40;29.95;;;;;;;4.15;85.40;103428.72;5074390;28;20071;-76
2022/03/26 06:35:24;;;;;;;87.40;29.77;;;;;;;4.20;85.02;103429.97;5073845;28;20631;-75
2022/03/26 06:37:53;;;;;;;82.72;32.33;;;;;;;4.27;85.29;103421.88;5072623;28;20094;-76
2022/03/26 06:40:21;;;;;;;96.45;33.85;;;;;;;4.36;85.93;103433.78;5077577;28;20044;-75
2022/03/26 06:43:02;;;;;;;90.22;35.75;;;;;;;4.44;85.18;103430.09;5081012;28;20062;-76
2022/03/26 06:45:30;;;;;;;91.78;35.30;;;;;;;4.50;85.20;103423.69;5081267;28;20048;-75
2022/03/26 06:47:58;;;;;;;93.38;33.30;;;;;;;4.61;85.01;103432.34;5072222;28;20132;-75
2022/03/26 06:50:26;;;;;;;105.63;33.10;;;;;;;4.74;86.08;103427.31;5076036;28;20055;-75
2022/03/26 06:52:57;;;;;;;106.65;37.35;;;;;;;4.90;86.06;103430.31;5072282;28;20043;-76
2022/03/26 06:55:27;;;;;;;110.85;36.92;;;;;;;5.02;85.82;103426.84;5073132;28;20062;-75
2022/03/26 06:57:55;;;;;;;108.63;36.67;;;;;;;5.16;85.57;103428.81;5072713;28;20501;-76
2022/03/26 07:00:23;;;;;;;119.40;39.35;;;;;;;5.31;86.35;103418.63;5080265;28;20126;-76
2022/03/26 07:02:50;;;;;;;117.03;41.35;;;;;;;5.44;86.28;103429.19;5080276;28;20885;-76
2022/03/26 07:05:19;;;;;;;132.40;41.53;;;;;;;5.67;86.42;103428.28;5079390;28;20048;-76
2022/03/26 07:07:46;;;;;;;135.35;41.78;;;;;;;5.83;86.39;103428.63;5080176;28;20059;-76
2022/03/26 07:10:16;;;;;;;126.35;40.80;;;;;;;6.15;85.81;103429.31;5075146;28;20075;-76
2022/03/26 07:12:44;;;;;;;137.30;42.78;;;;;;;6.34;85.52;103431.50;5074867;28;20052;-75
2022/03/26 07:15:11;;;;;;;130.05;43.80;;;;;;;6.56;84.76;103436.56;5070671;28;20075;-75
2022/03/26 07:17:40;;;;;;;134.18;43.38;;;;;;;6.80;84.06;103422.63;5067543;28;20055;-76
2022/03/26 07:20:10;;;;;;;135.85;42.33;;;;;;;7.03;83.04;103426.81;5070120;28;20069;-76
2022/03/26 07:22:38;;;;;;;139.13;43.00;;;;;;;7.27;82.29;103437.13;5072576;28;20146;-76
2022/03/26 07:25:07;;;;;;;134.13;42.05;;;;;;;7.51;81.07;103436.16;5078705;28;20139;-75
2022/03/26 07:27:37;;;;;;;148.65;45.28;;;;;;;7.75;79.81;103436.88;5076460;28;20066;-77
2022/03/26 07:30:07;;;;;;;144.18;46.22;;;;;;;8.01;79.01;103435.97;5063923;28;20411;-75
2022/03/26 07:32:35;;;;;;;146.05;42.58;;;;;;;8.27;78.09;103445.50;5078239;28;20052;-75
2022/03/26 07:35:03;;;;;;;137.25;41.60;;;;;;;8.56;78.05;103445.63;5076473;28;20059;-76
2022/03/26 07:37:31;;;;;;;154.23;46.22;;;;;;;8.74;76.85;103441.53;5079870;28;20060;-76
2022/03/26 07:40:00;;;;;;;164.90;48.00;;;;;;;8.99;76.00;103445.69;5069491;28;20067;-76
2022/03/26 07:42:28;;;;;;;158.57;46.00;;;;;;;9.28;76.01;103443.09;5075074;28;20048;-76
2022/03/26 07:44:58;;;;;;;160.45;48.67;;;;;;;9.45;73.98;103444.97;5070664;28;20090;-77
2022/03/26 07:47:26;;;;;;;157.27;46.83;;;;;;;9.62;72.79;103440.72;5077893;28;20469;-76
2022/03/26 07:49:54;;;;;;;145.93;45.05;;;;;;;9.75;71.17;103442.34;5075943;28;20238;-76
2022/03/26 07:52:22;;;;;;;144.55;45.20;;;;;;;9.91;70.85;103445.03;5078146;28;20197;-76
2022/03/26 07:54:51;;;;;;;137.63;44.08;;;;;;;10.17;69.55;103457.00;5075387;28;20044;-77
2022/03/26 07:57:22;;;;;;;128.98;40.30;;;;;;;10.27;68.83;103450.59;5077579;28;20040;-76
2022/03/26 07:59:50;;;;;;;135.40;41.30;;;;;;;10.41;68.02;103462.72;5075770;28;20052;-77
2022/03/26 08:02:19;;;;;;;128.35;40.28;;;;;;;10.61;68.11;103462.13;5076981;28;20078;-76
2022/03/26 08:04:48;;;;;;;139.63;40.60;;;;;;;10.72;66.19;103470.56;5075700;28;20059;-77
2022/03/26 08:07:16;;;;;;;125.82;37.75;;;;;;;11.02;66.59;103468.69;5073527;28;20133;-77
2022/03/26 08:09:44;;;;;;;133.85;39.33;;;;;;;11.13;64.59;103475.41;5075274;28;20076;-75
2022/03/26 08:12:12;;;;;;;122.50;39.50;;;;;;;11.27;64.56;103466.53;5078322;28;20758;-75
2022/03/26 08:14:40;;;;;;;126.43;37.90;;;;;;;11.51;63.41;103476.47;5077674;28;20503;-75
2022/03/26 08:17:09;;;;;;;129.02;39.65;;;;;;;11.59;63.98;103473.41;5076352;28;20132;-76
2022/03/26 08:19:38;;;;;;;118.10;38.90;;;;;;;11.71;62.44;103481.03;5074988;28;20644;-75
2022/03/26 08:22:06;;;;;;;130.88;39.83;;;;;;;11.73;61.31;103482.91;5068970;28;20080;-76
2022/03/26 08:24:34;;;;;;;135.75;41.65;;;;;;;11.70;61.64;103484.47;5069734;28;20059;-77
2022/03/26 08:27:03;;;;;;;118.43;39.70;;;;;;;11.96;61.35;103477.94;5075504;28;20052;-76
2022/03/26 08:29:31;;;;;;;133.02;41.78;;;;;;;11.88;60.62;103480.19;5072047;28;20036;-76
2022/03/26 08:32:02;;;;;;;118.38;37.72;;;;;;;12.11;61.14;103473.44;5066947;28;20132;-75
2022/03/26 08:34:30;;;;;;;120.40;37.33;;;;;;;12.21;60.62;103475.69;5077700;28;20097;-76
2022/03/26 08:37:00;;;;;;;124.20;38.28;;;;;;;12.34;60.18;103483.34;5072465;28;20071;-76
2022/03/26 08:39:27;;;;;;;114.80;38.25;;;;;;;12.60;59.56;103484.53;5057900;28;20215;-76
2022/03/26 08:41:55;;;;;;;113.53;38.38;;;;;;;12.48;59.37;103480.47;5074232;28;20071;-77
2022/03/26 08:44:24;;;;;;;112.65;37.30;;;;;;;12.69;59.18;103476.16;5070109;28;20456;-78
2022/03/26 08:46:52;;;;;;;115.45;37.15;;;;;;;12.89;58.54;103479.72;5074351;28;20048;-76
2022/03/26 08:49:20;;;;;;;112.75;36.83;;;;;;;13.23;58.90;103477.81;5070035;28;20159;-76
2022/03/26 08:51:48;;;;;;;121.68;37.88;;;;;;;13.43;57.92;103476.03;5075692;28;20052;-75
2022/03/26 08:54:17;;;;;;;101.78;35.28;;;;;;;13.54;57.41;103471.19;5069805;28;20123;-76
2022/03/26 08:56:45;;;;;;;108.65;35.88;;;;;;;13.73;57.29;103476.41;5082460;28;20044;-76
2022/03/26 08:59:13;;;;;;;109.65;35.50;;;;;;;14.02;57.51;103475.91;5075005;28;20135;-75
2022/03/26 09:01:43;;;;;;;108.30;34.55;;;;;;;13.93;55.38;103474.63;5075652;28;20522;-75
2022/03/26 09:04:14;;;;;;;97.90;31.80;;;;;;;14.03;55.51;103471.53;5077232;28;20089;-75
2022/03/26 09:06:42;;;;;;;85.43;30.75;;;;;;;14.13;54.89;103476.34;5070001;28;20088;-75
2022/03/26 09:09:10;;;;;;;89.18;31.20;;;;;;;14.16;54.08;103472.91;5076608;28;20164;-75
2022/03/26 09:11:39;;;;;;;79.47;28.98;;;;;;;14.40;53.90;103473.91;5077612;28;20179;-76
2022/03/26 09:14:07;;;;;;;86.00;30.42;;;;;;;14.48;52.84;103476.88;5074857;28;20053;-75
2022/03/26 09:16:35;;;;;;;66.43;27.40;;;;;;;14.68;53.18;103475.88;5076310;28;20063;-75
2022/03/26 09:19:03;;;;;;;63.58;27.95;;;;;;;14.81;51.79;103477.22;5075090;28;21243;-75
2022/03/26 09:21:31;;;;;;;80.30;27.33;;;;;;;14.90;51.71;103473.19;5072369;28;20098;-74
2022/03/26 09:23:59;;;;;;;72.97;25.67;;;;;;;15.18;52.01;103468.91;5074904;28;20123;-75
2022/03/26 09:26:27;;;;;;;73.10;26.80;;;;;;;15.37;51.73;103476.66;5074665;28;20461;-74
2022/03/26 09:28:57;;;;;;;68.88;26.90;;;;;;;15.34;51.18;103484.50;5067244;28;20507;-75
2022/03/26 09:31:25;;;;;;;61.92;22.33;;;;;;;15.76;50.46;103477.16;5074768;28;20056;-75
2022/03/26 09:33:53;;;;;;;53.65;21.23;;;;;;;15.67;48.88;103477.72;5073487;28;20101;-75
2022/03/26 09:36:21;;;;;;;51.85;19.38;;;;;;;15.83;48.64;103480.91;5070015;28;20564;-75
2022/03/26 09:38:49;;;;;;;56.75;21.42;;;;;;;15.52;48.61;103497.47;5065635;28;20048;-75
2022/03/26 09:41:17;;;;;;;58.85;23.50;;;;;;;15.62;48.69;103494.28;5072698;28;20058;-75
2022/03/26 09:43:45;;;;;;;49.95;20.48;;;;;;;15.79;48.51;103482.53;5078076;28;20101;-75
2022/03/26 09:46:14;;;;;;;55.47;20.60;;;;;;;15.59;48.17;103481.00;5074828;28;20058;-76
2022/03/26 09:48:43;;;;;;;47.30;17.90;;;;;;;15.81;47.96;103477.31;5071486;28;20169;-75
2022/03/26 09:51:15;;;;;;;47.65;20.05;;;;;;;16.00;47.85;103480.63;5078029;28;20203;-75
2022/03/26 09:53:42;;;;;;;50.35;20.58;;;;;;;15.86;47.64;103476.59;5078447;28;20058;-76
2022/03/26 09:56:12;;;;;;;47.63;19.92;;;;;;;16.37;47.81;103473.84;5079180;28;20484;-75
2022/03/26 09:58:39;;;;;;;45.45;18.85;;;;;;;16.43;47.37;103481.09;5079201;28;20245;-75
2022/03/26 10:01:07;;;;;;;47.33;20.02;;;;;;;16.47;47.08;103480.34;5075510;28;20100;-75
2022/03/26 10:03:39;;;;;;;46.95;19.00;;;;;;;16.50;46.62;103481.31;5080717;28;20049;-74
2022/03/26 10:06:13;;;;;;;47.50;20.23;;;;;;;16.80;46.38;103477.81;5081262;28;20054;-74
2022/03/26 10:08:41;;;;;;;42.70;19.65;;;;;;;16.81;46.12;103476.94;5078139;28;20120;-75
2022/03/26 10:11:21;;;;;;;47.88;21.42;;;;;;;16.83;45.67;103476.13;5077341;28;20051;-76
2022/03/26 10:13:52;;;;;;;38.58;19.02;;;;;;;16.73;45.85;103471.41;5077443;28;20052;-74
2022/03/26 10:16:20;;;;;;;43.53;19.80;;;;;;;17.27;46.16;103471.19;5076004;28;20860;-74
2022/03/26 10:18:50;;;;;;;42.75;17.90;;;;;;;17.40;44.82;103473.31;5080397;28;20048;-74
2022/03/26 10:21:20;;;;;;;45.88;18.65;;;;;;;17.46;44.90;103470.84;5070921;28;20071;-74
2022/03/26 10:23:55;;;;;;;51.75;21.05;;;;;;;17.36;45.24;103471.44;5069233;28;20060;-75
2022/03/26 10:26:24;;;;;;;51.25;21.85;;;;;;;17.79;44.86;103468.16;5074484;28;20055;-74
2022/03/26 10:28:53;;;;;;;52.97;21.60;;;;;;;17.63;44.14;103464.22;5075269;28;20044;-75
2022/03/26 10:34:14;;;;;;;49.08;22.38;;;;;;;17.63;44.37;103463.31;5077677;28;20055;-76
2022/03/26 10:36:45;;;;;;;58.30;24.95;;;;;;;17.97;44.89;103455.34;5075638;28;20059;-76
2022/03/26 10:39:18;;;;;;;69.05;28.15;;;;;;;17.44;44.91;103453.97;5072265;28;20083;-75
2022/03/26 10:41:48;;;;;;;57.10;25.02;;;;;;;17.93;45.31;103458.78;5074257;28;20056;-75
2022/03/26 10:44:17;;;;;;;54.55;23.92;;;;;;;18.11;44.40;103460.97;5075108;28;20055;-74
2022/03/26 10:46:47;;;;;;;59.42;24.05;;;;;;;17.93;43.94;103452.56;5078979;28;20051;-74
2022/03/26 10:49:26;;;;;;;55.60;24.08;;;;;;;17.85;44.22;103452.38;5076571;28;20044;-74
2022/03/26 10:51:55;;;;;;;49.97;22.88;;;;;;;17.80;44.42;103455.78;5079500;28;20123;-74
2022/03/26 10:54:29;;;;;;;52.83;21.70;;;;;;;17.72;44.53;103446.75;5076392;28;20464;-74
2022/03/26 10:56:59;;;;;;;55.60;23.88;;;;;;;17.96;43.37;103442.03;5078004;28;20035;-74
2022/03/26 10:59:29;;;;;;;60.28;24.15;;;;;;;17.93;43.60;103442.84;5074004;28;20550;-74
2022/03/26 11:01:57;;;;;;;59.13;26.10;;;;;;;18.30;43.10;103454.34;5080268;28;20067;-73
2022/03/26 11:04:28;;;;;;;60.45;23.58;;;;;;;17.94;42.57;103449.06;5069267;28;20418;-75
2022/03/26 11:06:57;;;;;;;56.63;23.45;;;;;;;18.52;42.38;103440.66;5064670;28;20055;-75
2022/03/26 11:09:26;;;;;;;58.20;24.30;;;;;;;18.78;42.03;103435.91;5077090;28;20035;-74
2022/03/26 11:11:57;;;;;;;64.97;26.52;;;;;;;18.82;41.87;103442.19;5073429;28;20123;-74
2022/03/26 11:14:30;;;;;;;55.92;25.90;;;;;;;18.96;41.56;103432.72;5077387;28;20052;-74
2022/03/26 11:17:17;;;;;;;71.68;29.33;;;;;;;18.69;41.10;103443.72;5078268;28;20038;-74
2022/03/26 11:20:06;;;;;;;61.00;27.50;;;;;;;18.74;41.65;103436.72;5077115;28;20090;-74
2022/03/26 11:22:45;;;;;;;69.50;28.23;;;;;;;18.87;40.19;103435.19;5074756;28;20087;-74
2022/03/26 11:25:36;;;;;;;71.50;27.70;;;;;;;18.69;40.75;103437.50;5077891;28;20516;-74